< < Back
Terminal Aerodrome Forecast


Current Version              Previous Versions:   1  2  3  4  5  6  7  8  9  

Terminal Aerodrome Forecast

320
FTUS42 KTAE 012100 AAB
TAFDHN
TAF AMD
KDHN 012108Z 0121/0218 18015KT 6SM RA SCT020 OVC030
     FM020200 23012KT P6SM -SHRA OVC007
     FM020700 29014KT P6SM VCSH OVC007
     FM021100 30015KT P6SM BKN025
     FM021300 31017G25KT P6SM SCT050=

Latest METAR

283
SAUS70 KWBC 020100 RRH
MTRDHN
METAR KDHN 020053Z 17011KT 10SM -RA BKN007 BKN013 OVC075 15/14 A2997 RMK
AO2 SLP145 P0002 T01500144


USA.gov is the U.S. government's official web portal to all federal, state and local government web resources and services.